Time;durP1;ratioP1;P1;durP2;ratioP2;P2;SDS_P1;SDS_P2;PMS_P1;PMS_P2;Temp;Humidity;BMP_temperature;BMP_pressure;BME280_temperature;BME280_humidity;BME280_pressure;Samples;Min_cycle;Max_cycle;Signal;HPM_P1;HPM_P2
2023/10/17 00:02:25;;;;;;;2.75;1.77;;;;;;;;;;4866068;29;20061;-81
2023/10/17 00:04:52;;;;;;;2.47;1.90;;;;;;;;;;4877820;29;20377;-81
2023/10/17 00:07:20;;;;;;;2.67;1.73;;;;;;;;;;4884544;29;20057;-81
2023/10/17 00:09:50;;;;;;;3.55;1.80;;;;;;;;;;4870505;29;20067;-81
2023/10/17 00:12:35;;;;;;;2.33;1.73;;;;;;;;;;4881915;29;20048;-81
2023/10/17 00:15:16;;;;;;;3.20;1.73;;;;;;;;;;4882223;29;20452;-81
2023/10/17 00:17:44;;;;;;;2.05;1.70;;;;;;;;;;4882750;29;20385;-81
2023/10/17 00:20:16;;;;;;;5.78;2.47;;;;;;;;;;4869151;29;20057;-81
2023/10/17 00:22:46;;;;;;;3.08;2.75;;;;;;;;;;4884745;29;20064;-81
2023/10/17 00:25:18;;;;;;;2.22;1.60;;;;;;;;;;4885787;29;20065;-81
2023/10/17 00:27:51;;;;;;;2.72;1.70;;;;;;;;;;4865761;29;20049;-81
2023/10/17 00:30:18;;;;;;;3.45;2.15;;;;;;;;;;4886050;29;20057;-81
2023/10/17 00:32:47;;;;;;;2.15;1.20;;;;;;;;;;4865120;29;20401;-81
2023/10/17 00:35:18;;;;;;;3.10;1.88;;;;;;;;;;4880404;29;20060;-81
2023/10/17 00:37:53;;;;;;;5.15;2.58;;;;;;;;;;4882799;29;20495;-81
2023/10/17 00:40:34;;;;;;;2.45;1.77;;;;;;;;;;4881749;29;20068;-81
2023/10/17 00:43:05;;;;;;;2.38;2.17;;;;;;;;;;4868093;29;20427;-81
2023/10/17 00:45:37;;;;;;;2.42;2.20;;;;;;;;;;4866697;29;20064;-81
2023/10/17 00:48:09;;;;;;;3.53;1.58;;;;;;;;;;4884071;29;20045;-81
2023/10/17 00:50:38;;;;;;;2.72;2.13;;;;;;;;;;4882969;29;20057;-81
2023/10/17 00:53:06;;;;;;;3.80;1.90;;;;;;;;;;4897809;29;20049;-81
2023/10/17 00:55:37;;;;;;;5.05;2.35;;;;;;;;;;4867364;29;20055;-81
2023/10/17 00:58:06;;;;;;;4.60;2.25;;;;;;;;;;4877831;29;20053;-81
2023/10/17 01:00:41;;;;;;;4.25;2.60;;;;;;;;;;4883644;29;20057;-81
2023/10/17 01:03:11;;;;;;;6.13;1.75;;;;;;;;;;4899426;29;20052;-81
2023/10/17 01:05:42;;;;;;;8.25;1.67;;;;;;;;;;4915656;23;20040;-83
2023/10/17 01:08:10;;;;;;;1.75;1.52;;;;;;;;;;4888932;29;20057;-83
2023/10/17 01:10:37;;;;;;;4.20;2.33;;;;;;;;;;4891788;29;20056;-83
2023/10/17 01:13:06;;;;;;;12.63;3.63;;;;;;;;;;4881106;29;20072;-83
2023/10/17 01:15:36;;;;;;;3.40;2.85;;;;;;;;;;4894547;29;20059;-83
2023/10/17 01:18:05;;;;;;;2.00;1.67;;;;;;;;;;4894652;29;20036;-82
2023/10/17 01:20:35;;;;;;;5.22;2.63;;;;;;;;;;4897479;29;20059;-82
2023/10/17 01:23:04;;;;;;;2.45;1.65;;;;;;;;;;4897271;29;20040;-83
2023/10/17 01:25:40;;;;;;;6.35;2.95;;;;;;;;;;4879854;29;20399;-83
2023/10/17 01:28:10;;;;;;;2.28;1.98;;;;;;;;;;4896105;29;20052;-83
2023/10/17 01:30:41;;;;;;;4.00;2.33;;;;;;;;;;4895648;29;20071;-83
2023/10/17 01:33:12;;;;;;;2.28;1.80;;;;;;;;;;4878574;29;20056;-83
2023/10/17 01:35:44;;;;;;;3.63;2.15;;;;;;;;;;4880414;29;20056;-83
2023/10/17 01:38:13;;;;;;;4.50;1.92;;;;;;;;;;4878344;29;20061;-83
2023/10/17 01:40:43;;;;;;;2.97;1.70;;;;;;;;;;4878850;29;20052;-83
2023/10/17 01:43:11;;;;;;;2.85;1.77;;;;;;;;;;4898757;29;20049;-83
2023/10/17 01:45:38;;;;;;;2.85;2.63;;;;;;;;;;4880752;29;20055;-83
2023/10/17 01:48:06;;;;;;;2.35;1.75;;;;;;;;;;4894226;29;20706;-82
2023/10/17 01:50:39;;;;;;;2.70;1.80;;;;;;;;;;4896394;29;20057;-83
2023/10/17 01:53:12;;;;;;;4.53;2.05;;;;;;;;;;4878431;29;20503;-83
2023/10/17 01:55:41;;;;;;;2.65;1.48;;;;;;;;;;4879457;29;20045;-83
2023/10/17 01:58:15;;;;;;;2.25;2.03;;;;;;;;;;4907481;29;20411;-83
2023/10/17 02:00:45;;;;;;;2.83;1.90;;;;;;;;;;4877695;29;20356;-82
2023/10/17 02:03:12;;;;;;;4.80;2.10;;;;;;;;;;4897482;29;20048;-83
2023/10/17 02:05:39;;;;;;;2.80;1.60;;;;;;;;;;4879178;29;20504;-83
2023/10/17 02:08:08;;;;;;;2.55;1.60;;;;;;;;;;4878649;29;20063;-82
2023/10/17 02:10:38;;;;;;;4.53;2.17;;;;;;;;;;4895615;29;20539;-82
2023/10/17 02:13:07;;;;;;;3.08;2.25;;;;;;;;;;4893598;29;20059;-83
2023/10/17 02:15:38;;;;;;;2.35;2.15;;;;;;;;;;4879449;29;20048;-83
2023/10/17 02:18:14;;;;;;;3.38;2.28;;;;;;;;;;4894853;29;20704;-83
2023/10/17 02:20:51;;;;;;;2.65;2.20;;;;;;;;;;4893197;29;20084;-83
2023/10/17 02:23:25;;;;;;;2.67;2.15;;;;;;;;;;4879578;29;20075;-82
2023/10/17 02:25:58;;;;;;;3.08;2.25;;;;;;;;;;4891188;29;20263;-82
2023/10/17 02:28:26;;;;;;;4.60;2.50;;;;;;;;;;4881857;29;20052;-82
2023/10/17 02:30:58;;;;;;;6.68;2.42;;;;;;;;;;4895526;29;20057;-82
2023/10/17 02:33:28;;;;;;;2.03;1.75;;;;;;;;;;4896231;29;20059;-82
2023/10/17 02:36:07;;;;;;;3.08;2.55;;;;;;;;;;4893044;29;20064;-82
2023/10/17 02:38:37;;;;;;;3.25;2.08;;;;;;;;;;4877481;29;20053;-82
2023/10/17 02:41:06;;;;;;;5.70;2.70;;;;;;;;;;4892966;29;20498;-82
2023/10/17 02:43:40;;;;;;;2.90;1.98;;;;;;;;;;4879911;29;20396;-82
2023/10/17 02:46:13;;;;;;;2.67;2.40;;;;;;;;;;4887480;29;20048;-82
2023/10/17 02:48:45;;;;;;;4.10;2.22;;;;;;;;;;4873663;29;20076;-83
2023/10/17 02:51:32;;;;;;;4.22;1.80;;;;;;;;;;4898108;29;20045;-83
2023/10/17 02:54:08;;;;;;;2.67;2.05;;;;;;;;;;4883885;29;20426;-82
2023/10/17 02:56:46;;;;;;;3.33;1.73;;;;;;;;;;4883253;29;20060;-82
2023/10/17 02:59:13;;;;;;;3.08;2.40;;;;;;;;;;4870405;29;20041;-82
2023/10/17 03:01:43;;;;;;;2.85;1.73;;;;;;;;;;4899029;29;20163;-82
2023/10/17 03:04:14;;;;;;;2.40;1.45;;;;;;;;;;4877851;29;20049;-82
2023/10/17 03:06:44;;;;;;;1.73;1.63;;;;;;;;;;4883143;29;20079;-82
2023/10/17 03:12:22;;;;;;;2.90;2.50;;;;;;;;;;5083432;27;20401;-83
2023/10/17 03:15:18;;;;;;;3.15;1.75;;;;;;;;;;5069639;28;20053;-83
2023/10/17 03:17:44;;;;;;;2.80;2.22;;;;;;;;;;5052148;28;20114;-82
2023/10/17 03:20:13;;;;;;;2.72;2.53;;;;;;;;;;5067753;28;20044;-82
2023/10/17 03:22:46;;;;;;;3.72;2.10;;;;;;;;;;5069798;28;20545;-82
2023/10/17 03:25:20;;;;;;;2.22;2.03;;;;;;;;;;5052814;28;20048;-83
2023/10/17 03:27:55;;;;;;;3.42;2.38;;;;;;;;;;5046056;28;20406;-83
2023/10/17 03:30:24;;;;;;;4.40;2.92;;;;;;;;;;5048598;28;20388;-83
2023/10/17 03:33:05;;;;;;;4.07;2.15;;;;;;;;;;5049511;28;20032;-83
2023/10/17 03:35:35;;;;;;;3.17;2.20;;;;;;;;;;5051272;28;20514;-83
2023/10/17 03:38:03;;;;;;;3.65;2.55;;;;;;;;;;5052401;28;20061;-83
2023/10/17 03:40:36;;;;;;;2.58;2.10;;;;;;;;;;5067221;28;20041;-83
2023/10/17 03:43:12;;;;;;;2.75;2.08;;;;;;;;;;5062908;28;20053;-82
2023/10/17 03:45:52;;;;;;;2.58;2.38;;;;;;;;;;5050374;28;20060;-82
2023/10/17 03:48:20;;;;;;;2.97;2.53;;;;;;;;;;5050981;28;20499;-83
2023/10/17 03:50:58;;;;;;;2.38;1.63;;;;;;;;;;5063902;28;20063;-83
2023/10/17 03:53:31;;;;;;;2.38;1.65;;;;;;;;;;5046443;28;20524;-82
2023/10/17 03:56:01;;;;;;;3.83;2.00;;;;;;;;;;5064489;28;20406;-82
2023/10/17 03:58:43;;;;;;;2.55;2.25;;;;;;;;;;5067908;28;20060;-82
2023/10/17 04:01:11;;;;;;;2.72;2.45;;;;;;;;;;5053654;28;20041;-83
2023/10/17 04:03:39;;;;;;;4.55;2.85;;;;;;;;;;5045306;28;20049;-83
2023/10/17 04:06:18;;;;;;;4.80;2.42;;;;;;;;;;5063575;28;20052;-82
2023/10/17 04:08:49;;;;;;;3.75;2.72;;;;;;;;;;5060003;28;20525;-82
2023/10/17 04:11:19;;;;;;;4.65;3.42;;;;;;;;;;5058885;28;20048;-83
2023/10/17 04:13:49;;;;;;;2.65;1.95;;;;;;;;;;5060835;28;20045;-83
2023/10/17 04:16:21;;;;;;;3.97;2.72;;;;;;;;;;5069208;28;20424;-83
2023/10/17 04:18:54;;;;;;;2.83;2.58;;;;;;;;;;5066298;28;20060;-83
2023/10/17 04:21:31;;;;;;;4.18;2.63;;;;;;;;;;5042945;28;20041;-83
2023/10/17 04:24:01;;;;;;;2.70;1.80;;;;;;;;;;5036854;28;20041;-82
2023/10/17 04:26:34;;;;;;;2.50;2.13;;;;;;;;;;5054168;28;20052;-82
2023/10/17 04:29:12;;;;;;;3.28;2.75;;;;;;;;;;5054378;28;20049;-83
2023/10/17 04:31:41;;;;;;;3.17;2.03;;;;;;;;;;5036569;28;20049;-82
2023/10/17 04:34:17;;;;;;;5.85;2.80;;;;;;;;;;5035051;28;20060;-82
2023/10/17 04:36:46;;;;;;;4.50;3.03;;;;;;;;;;5054178;28;20048;-82
2023/10/17 04:39:18;;;;;;;4.05;2.80;;;;;;;;;;5054710;28;20053;-83
2023/10/17 04:44:36;;;;;;;3.25;2.80;;;;;;;;;;5051851;28;20048;-82
2023/10/17 04:47:25;;;;;;;4.35;3.08;;;;;;;;;;5047930;28;20200;-82
2023/10/17 04:49:54;;;;;;;2.97;2.65;;;;;;;;;;5048173;28;20048;-83
2023/10/17 04:52:30;;;;;;;2.40;2.20;;;;;;;;;;5050628;28;20040;-83
2023/10/17 04:55:17;;;;;;;4.67;3.73;;;;;;;;;;5050576;28;20048;-83
2023/10/17 04:57:58;;;;;;;3.45;2.72;;;;;;;;;;5035855;28;20406;-83
2023/10/17 05:01:10;;;;;;;4.57;2.33;;;;;;;;;;5039735;28;20050;-83
2023/10/17 05:03:32;;;;;;;4.90;2.33;;;;;;;;;;5025860;28;20042;-83
2023/10/17 05:06:19;;;;;;;4.55;3.10;;;;;;;;;;5054262;28;20422;-83
2023/10/17 05:09:00;;;;;;;5.65;3.58;;;;;;;;;;5049395;28;20045;-83
2023/10/17 06:18:26;;;;;;;3.35;2.78;;;;;;;;;;5063761;28;20617;-82
2023/10/17 06:26:58;;;;;;;4.88;3.78;;;;;;;;;;5055622;28;20056;-82
2023/10/17 06:35:13;;;;;;;3.58;3.15;;;;;;;;;;5062598;28;20057;-82
2023/10/17 06:37:42;;;;;;;3.78;3.15;;;;;;;;;;5036307;28;20053;-82
2023/10/17 06:40:15;;;;;;;4.10;2.80;;;;;;;;;;5047192;28;20059;-82
2023/10/17 06:42:49;;;;;;;5.47;2.80;;;;;;;;;;5058257;28;20049;-82
2023/10/17 06:45:19;;;;;;;5.03;3.75;;;;;;;;;;5044682;28;20056;-82
2023/10/17 06:47:47;;;;;;;3.45;2.55;;;;;;;;;;5058316;28;20040;-82
2023/10/17 06:51:02;;;;;;;4.53;3.03;;;;;;;;;;5051469;28;20055;-82
2023/10/17 06:53:11;;;;;;;3.67;2.47;;;;;;;;;;5039808;28;20044;-81
2023/10/17 06:55:43;;;;;;;5.47;2.90;;;;;;;;;;5044662;28;20053;-81
2023/10/17 06:58:10;;;;;;;3.80;3.40;;;;;;;;;;5043269;28;20064;-81
2023/10/17 07:00:49;;;;;;;4.18;3.75;;;;;;;;;;5049062;28;20053;-81
2023/10/17 07:03:25;;;;;;;5.65;4.28;;;;;;;;;;5065600;28;20049;-81
2023/10/17 07:05:55;;;;;;;;;;;;;;;;;;5013530;23;20047;-81
2023/10/17 07:08:27;;;;;;;7.80;4.43;;;;;;;;;;5012346;28;19925;-81
2023/10/17 07:11:02;;;;;;;12.38;4.97;;;;;;;;;;4988192;28;20051;-81
2023/10/17 07:13:50;;;;;;;8.13;4.68;;;;;;;;;;4958407;28;20055;-81
2023/10/17 07:16:27;;;;;;;9.98;5.00;;;;;;;;;;4992064;28;20055;-81
2023/10/17 07:19:09;;;;;;;5.05;4.45;;;;;;;;;;4970637;28;20047;-81
2023/10/17 07:21:55;;;;;;;4.28;3.72;;;;;;;;;;4973272;28;20401;-81
2023/10/17 07:24:23;;;;;;;4.60;4.22;;;;;;;;;;4974510;28;20050;-81
2023/10/17 07:26:54;;;;;;;4.53;3.85;;;;;;;;;;4974626;28;20054;-81
2023/10/17 07:29:24;;;;;;;4.50;3.33;;;;;;;;;;4974200;28;20386;-81
2023/10/17 07:31:53;;;;;;;4.35;3.40;;;;;;;;;;4963426;28;20054;-81
2023/10/17 07:34:22;;;;;;;4.38;3.95;;;;;;;;;;4989990;28;20400;-81
2023/10/17 07:36:50;;;;;;;4.88;3.97;;;;;;;;;;4956943;28;20051;-81
2023/10/17 07:39:24;;;;;;;4.57;3.63;;;;;;;;;;4967981;28;20047;-81
2023/10/17 07:41:55;;;;;;;4.43;3.35;;;;;;;;;;4957647;28;20046;-81
2023/10/17 07:44:25;;;;;;;4.40;3.42;;;;;;;;;;4975875;28;20058;-81
2023/10/17 07:47:08;;;;;;;7.32;3.45;;;;;;;;;;4975433;28;20051;-81
2023/10/17 07:49:36;;;;;;;6.47;3.35;;;;;;;;;;4960564;28;20059;-81
2023/10/17 07:52:10;;;;;;;4.90;3.25;;;;;;;;;;4978900;28;20047;-81
2023/10/17 07:54:45;;;;;;;4.20;3.28;;;;;;;;;;4974867;28;20055;-81
2023/10/17 07:57:22;;;;;;;8.30;5.63;;;;;;;;;;4973296;28;20051;-81
2023/10/17 07:59:51;;;;;;;4.40;3.10;;;;;;;;;;4960236;28;20053;-81
2023/10/17 08:02:23;;;;;;;4.57;4.03;;;;;;;;;;4979017;28;20050;-81
2023/10/17 08:04:53;;;;;;;3.58;3.00;;;;;;;;;;4977656;28;20051;-81
2023/10/17 08:07:23;;;;;;;6.85;3.97;;;;;;;;;;4958361;28;20047;-80
2023/10/17 08:09:57;;;;;;;7.45;4.50;;;;;;;;;;4979011;28;20055;-80
2023/10/17 08:12:29;;;;;;;;;;;;;;;;;;4984775;28;20051;-80
2023/10/17 08:14:59;;;;;;;6.63;4.57;;;;;;;;;;4980351;28;19926;-80
2023/10/17 08:17:28;;;;;;;6.22;4.38;;;;;;;;;;4986457;28;20058;-80
2023/10/17 08:20:33;;;;;;;11.70;5.40;;;;;;;;;;4995205;28;20054;-80
2023/10/17 08:22:55;;;;;;;6.28;4.07;;;;;;;;;;4990417;28;20465;-81
2023/10/17 08:25:30;;;;;;;5.35;4.75;;;;;;;;;;4963398;28;20071;-80
2023/10/17 08:28:04;;;;;;;4.55;4.13;;;;;;;;;;4976230;28;20069;-80
2023/10/17 08:30:38;;;;;;;5.78;4.18;;;;;;;;;;4962456;28;20046;-80
2023/10/17 08:33:12;;;;;;;6.03;3.90;;;;;;;;;;4979343;28;20054;-80
2023/10/17 08:35:39;;;;;;;;;;;;;;;;;;4977254;28;20050;-81
2023/10/17 08:38:07;;;;;;;6.68;4.35;;;;;;;;;;4999841;28;19945;-82
2023/10/17 08:40:40;;;;;;;5.07;4.25;;;;;;;;;;4978385;28;20411;-80
2023/10/17 08:43:14;;;;;;;6.50;4.25;;;;;;;;;;4981167;28;20050;-80
2023/10/17 08:45:43;;;;;;;5.43;3.75;;;;;;;;;;4979380;28;20047;-81
2023/10/17 08:48:11;;;;;;;6.55;5.30;;;;;;;;;;4967560;28;20054;-80
2023/10/17 08:50:41;;;;;;;5.57;4.32;;;;;;;;;;4975704;28;20058;-81
2023/10/17 08:53:13;;;;;;;7.95;4.53;;;;;;;;;;4979140;28;20039;-81
2023/10/17 08:55:43;;;;;;;8.90;3.80;;;;;;;;;;4962430;28;20420;-81
2023/10/17 08:58:14;;;;;;;5.40;4.47;;;;;;;;;;4978901;28;20081;-80
2023/10/17 09:00:55;;;;;;;6.97;4.05;;;;;;;;;;4990003;28;20061;-80
2023/10/17 09:03:35;;;;;;;4.88;4.28;;;;;;;;;;4977158;28;20055;-80
2023/10/17 09:06:28;;;;;;;4.65;4.03;;;;;;;;;;4960969;28;20059;-80
2023/10/17 09:08:58;;;;;;;4.07;3.53;;;;;;;;;;4971647;28;20500;-80
2023/10/17 09:11:30;;;;;;;5.22;4.30;;;;;;;;;;4977445;28;20097;-80
2023/10/17 09:14:15;;;;;;;4.72;4.28;;;;;;;;;;4978061;28;20428;-80
2023/10/17 09:16:50;;;;;;;8.55;4.45;;;;;;;;;;4979612;28;20078;-81
2023/10/17 09:19:25;;;;;;;6.60;4.20;;;;;;;;;;4992887;28;20054;-81
2023/10/17 09:21:59;;;;;;;6.15;4.78;;;;;;;;;;4954130;28;20051;-80
2023/10/17 09:24:35;;;;;;;5.55;3.88;;;;;;;;;;4997135;28;20062;-79
2023/10/17 09:27:12;;;;;;;7.22;4.22;;;;;;;;;;4983354;28;20050;-79
2023/10/17 09:29:50;;;;;;;7.35;4.13;;;;;;;;;;4976801;28;20050;-79
2023/10/17 09:32:34;;;;;;;5.28;4.53;;;;;;;;;;4978416;28;20066;-79
2023/10/17 09:35:10;;;;;;;5.03;4.20;;;;;;;;;;4962436;28;20051;-80
2023/10/17 09:37:38;;;;;;;;;;;;;;;;;;4979547;28;20512;-80
2023/10/17 09:40:12;;;;;;;5.13;4.28;;;;;;;;;;4976324;28;19926;-80
2023/10/17 09:42:44;;;;;;;6.25;4.22;;;;;;;;;;4961322;28;20055;-80
2023/10/17 09:45:16;;;;;;;4.88;3.85;;;;;;;;;;4962246;28;20069;-80
2023/10/17 09:47:52;;;;;;;5.78;4.55;;;;;;;;;;4980951;28;20057;-80
2023/10/17 09:50:21;;;;;;;6.95;6.07;;;;;;;;;;4984280;28;20518;-80
2023/10/17 09:52:50;;;;;;;4.80;3.88;;;;;;;;;;4976438;28;20054;-81
2023/10/17 09:55:18;;;;;;;7.25;4.88;;;;;;;;;;4966322;28;20055;-81
2023/10/17 09:57:51;;;;;;;5.97;4.20;;;;;;;;;;4978028;28;20051;-80
2023/10/17 10:00:28;;;;;;;7.80;4.75;;;;;;;;;;4964271;28;20050;-80
2023/10/17 10:03:00;;;;;;;8.25;4.47;;;;;;;;;;4975778;28;20045;-82
2023/10/17 10:05:30;;;;;;;8.15;4.80;;;;;;;;;;4958605;28;20444;-80
2023/10/17 10:08:03;;;;;;;6.32;4.10;;;;;;;;;;4976909;28;20055;-80
2023/10/17 10:10:51;;;;;;;5.50;4.97;;;;;;;;;;4976921;28;20081;-80
2023/10/17 10:13:19;;;;;;;9.25;6.13;;;;;;;;;;4959619;28;20046;-80
2023/10/17 10:15:55;;;;;;;6.65;5.30;;;;;;;;;;4968033;28;20047;-80
2023/10/17 10:18:54;;;;;;;5.45;4.90;;;;;;;;;;4974540;28;20055;-79
2023/10/17 10:21:55;;;;;;;8.45;6.03;;;;;;;;;;4973368;28;20508;-80
2023/10/17 10:24:27;;;;;;;5.95;4.45;;;;;;;;;;4977375;28;20054;-80
2023/10/17 10:27:24;;;;;;;7.50;5.35;;;;;;;;;;4969710;28;20061;-80
2023/10/17 10:30:33;;;;;;;6.53;5.00;;;;;;;;;;4977432;28;20055;-79
2023/10/17 10:33:03;;;;;;;6.38;5.38;;;;;;;;;;4966770;28;20062;-80
2023/10/17 10:35:33;;;;;;;8.05;5.50;;;;;;;;;;4961043;28;20060;-80
2023/10/17 10:38:02;;;;;;;6.28;4.47;;;;;;;;;;4959696;28;20066;-80
2023/10/17 10:40:34;;;;;;;6.25;4.35;;;;;;;;;;4968715;28;20629;-80
2023/10/17 10:43:04;;;;;;;5.95;5.13;;;;;;;;;;4969689;28;20058;-80
2023/10/17 10:45:40;;;;;;;6.90;4.80;;;;;;;;;;4977485;28;20644;-80
2023/10/17 10:48:14;;;;;;;4.38;3.75;;;;;;;;;;4965230;28;20062;-81
2023/10/17 10:50:43;;;;;;;7.18;5.45;;;;;;;;;;4979273;28;20050;-80
2023/10/17 10:53:24;;;;;;;8.18;4.43;;;;;;;;;;4964712;28;20061;-80
2023/10/17 10:55:56;;;;;;;6.15;5.43;;;;;;;;;;4970104;28;20073;-80
2023/10/17 10:58:27;;;;;;;5.40;4.00;;;;;;;;;;4977263;28;20051;-80
2023/10/17 11:00:59;;;;;;;5.28;4.00;;;;;;;;;;4973318;28;20050;-81
2023/10/17 11:03:29;;;;;;;5.03;4.13;;;;;;;;;;4980969;28;20046;-81
2023/10/17 11:06:03;;;;;;;8.77;5.00;;;;;;;;;;4972133;28;20059;-81
2023/10/17 11:08:35;;;;;;;6.72;5.05;;;;;;;;;;4977630;28;20058;-81
2023/10/17 11:11:03;;;;;;;5.60;4.07;;;;;;;;;;4970706;28;20500;-81
2023/10/17 11:13:32;;;;;;;5.47;4.30;;;;;;;;;;4978241;28;20061;-81
2023/10/17 11:16:05;;;;;;;6.03;3.80;;;;;;;;;;4958979;28;20059;-81
2023/10/17 11:18:35;;;;;;;4.47;4.07;;;;;;;;;;4976552;28;20058;-80
2023/10/17 11:21:04;;;;;;;8.05;4.72;;;;;;;;;;4966093;28;20055;-80
2023/10/17 11:23:36;;;;;;;6.03;4.50;;;;;;;;;;4979403;28;20051;-80
2023/10/17 11:26:11;;;;;;;;;;;;;;;;;;4977844;28;20062;-80
2023/10/17 11:28:42;;;;;;;7.05;5.35;;;;;;;;;;4981774;28;20416;-80
2023/10/17 11:31:21;;;;;;;7.43;5.75;;;;;;;;;;4959664;28;20058;-80
2023/10/17 11:33:55;;;;;;;4.22;3.85;;;;;;;;;;4980012;28;20074;-81
2023/10/17 11:36:23;;;;;;;6.88;4.57;;;;;;;;;;4971935;28;20054;-80
2023/10/17 11:39:03;;;;;;;6.07;3.83;;;;;;;;;;4982542;28;20061;-80
2023/10/17 11:41:39;;;;;;;6.40;3.97;;;;;;;;;;4992898;28;20062;-80
2023/10/17 11:44:09;;;;;;;5.20;3.80;;;;;;;;;;4978013;28;20317;-81
2023/10/17 11:46:39;;;;;;;5.28;4.18;;;;;;;;;;4977106;28;20055;-81
2023/10/17 11:49:21;;;;;;;6.88;5.90;;;;;;;;;;4977077;28;20055;-81
2023/10/17 11:51:50;;;;;;;4.55;4.13;;;;;;;;;;4978393;28;20054;-80
2023/10/17 11:54:22;;;;;;;6.00;4.70;;;;;;;;;;4963315;28;20097;-80
2023/10/17 11:56:51;;;;;;;6.38;4.22;;;;;;;;;;4975599;28;20053;-80
2023/10/17 11:59:19;;;;;;;7.10;4.30;;;;;;;;;;4975001;28;20066;-80
2023/10/17 12:01:52;;;;;;;3.97;3.58;;;;;;;;;;4976215;28;20059;-80
2023/10/17 12:04:23;;;;;;;4.05;2.90;;;;;;;;;;4981308;28;20039;-81
2023/10/17 12:06:50;;;;;;;6.32;4.68;;;;;;;;;;4967187;28;20066;-81
2023/10/17 12:09:22;;;;;;;7.53;4.45;;;;;;;;;;4980673;28;20069;-81
2023/10/17 12:11:54;;;;;;;5.03;4.47;;;;;;;;;;4962002;28;20047;-82
2023/10/17 12:14:26;;;;;;;5.65;4.80;;;;;;;;;;4992232;28;20050;-81
2023/10/17 12:16:54;;;;;;;5.07;4.15;;;;;;;;;;4961261;28;20047;-81
2023/10/17 12:19:22;;;;;;;5.05;4.45;;;;;;;;;;4967107;28;20050;-80
2023/10/17 12:25:23;;;;;;;7.68;4.97;;;;;;;;;;4960397;28;20484;-81
2023/10/17 12:27:56;;;;;;;4.38;3.90;;;;;;;;;;4978814;28;20073;-81
2023/10/17 12:30:27;;;;;;;4.47;3.55;;;;;;;;;;4976773;28;20458;-81
2023/10/17 12:32:56;;;;;;;4.93;4.43;;;;;;;;;;4994831;28;20054;-81
2023/10/17 12:35:23;;;;;;;5.60;5.07;;;;;;;;;;4974140;28;20507;-81
2023/10/17 12:37:57;;;;;;;7.45;4.45;;;;;;;;;;4980831;28;20049;-81
2023/10/17 12:40:30;;;;;;;5.40;3.90;;;;;;;;;;4959975;28;20061;-81
2023/10/17 12:43:01;;;;;;;6.28;4.88;;;;;;;;;;4963002;28;20058;-81
2023/10/17 12:45:30;;;;;;;8.00;5.00;;;;;;;;;;4960184;28;20046;-81
2023/10/17 12:48:01;;;;;;;10.20;4.35;;;;;;;;;;4996212;28;20070;-80
2023/10/17 12:50:29;;;;;;;6.88;5.07;;;;;;;;;;4975895;28;20055;-81
2023/10/17 12:52:56;;;;;;;11.02;4.55;;;;;;;;;;4980039;28;20054;-81
2023/10/17 12:55:23;;;;;;;3.90;3.13;;;;;;;;;;4977041;28;20046;-81
2023/10/17 12:57:51;;;;;;;6.18;5.38;;;;;;;;;;4976047;28;20691;-81
2023/10/17 13:00:25;;;;;;;4.95;3.75;;;;;;;;;;4976836;28;20416;-81
2023/10/17 13:02:52;;;;;;;6.70;3.55;;;;;;;;;;4971256;28;20047;-81
2023/10/17 13:05:21;;;;;;;4.53;3.47;;;;;;;;;;5029880;22;20412;-84
2023/10/17 13:07:49;;;;;;;3.63;3.15;;;;;;;;;;4998234;28;20058;-84
2023/10/17 13:10:19;;;;;;;5.13;3.42;;;;;;;;;;4987093;28;20477;-84
2023/10/17 13:12:48;;;;;;;6.05;4.80;;;;;;;;;;4970855;28;20057;-84
2023/10/17 13:15:18;;;;;;;5.20;4.20;;;;;;;;;;4985925;28;20500;-84
2023/10/17 13:17:46;;;;;;;5.60;3.90;;;;;;;;;;4961861;28;20046;-84
2023/10/17 13:20:21;;;;;;;4.68;3.30;;;;;;;;;;4975115;28;20051;-84
2023/10/17 13:22:50;;;;;;;5.60;3.63;;;;;;;;;;4969409;28;20054;-84
2023/10/17 13:25:20;;;;;;;5.03;4.40;;;;;;;;;;4985718;28;20042;-85
2023/10/17 13:27:47;;;;;;;3.65;3.13;;;;;;;;;;4975126;28;20058;-84
2023/10/17 13:30:14;;;;;;;5.13;2.95;;;;;;;;;;4976101;28;20053;-84
2023/10/17 13:32:44;;;;;;;4.40;3.72;;;;;;;;;;4982346;28;20054;-84
2023/10/17 13:35:11;;;;;;;5.43;3.70;;;;;;;;;;4986776;28;20047;-84
2023/10/17 13:37:51;;;;;;;4.70;3.05;;;;;;;;;;4954363;28;20049;-84
2023/10/17 13:40:21;;;;;;;3.22;2.88;;;;;;;;;;4972929;28;20050;-85
2023/10/17 13:42:50;;;;;;;7.40;4.03;;;;;;;;;;4981491;28;20061;-84
2023/10/17 13:45:17;;;;;;;7.50;5.03;;;;;;;;;;4997474;28;20049;-84
2023/10/17 13:47:47;;;;;;;4.85;3.95;;;;;;;;;;4959583;28;20062;-84
2023/10/17 13:50:15;;;;;;;3.53;2.90;;;;;;;;;;4972741;28;20050;-84
2023/10/17 13:52:46;;;;;;;5.70;3.67;;;;;;;;;;4967979;28;20057;-84
2023/10/17 13:55:23;;;;;;;6.95;5.55;;;;;;;;;;4985767;28;20053;-84
2023/10/17 13:57:55;;;;;;;4.90;3.42;;;;;;;;;;4979565;28;20042;-84
2023/10/17 14:00:31;;;;;;;6.18;3.35;;;;;;;;;;4989839;28;20050;-84
2023/10/17 14:03:05;;;;;;;6.30;4.50;;;;;;;;;;4970208;28;20378;-84
2023/10/17 14:05:37;;;;;;;5.32;3.70;;;;;;;;;;4984561;28;20038;-84
2023/10/17 14:08:05;;;;;;;5.53;3.85;;;;;;;;;;4968114;28;20412;-84
2023/10/17 14:10:32;;;;;;;5.13;3.47;;;;;;;;;;4973725;28;20062;-84
2023/10/17 14:13:01;;;;;;;9.27;3.38;;;;;;;;;;4972679;28;20055;-84
2023/10/17 14:15:28;;;;;;;6.03;3.78;;;;;;;;;;4973059;28;20507;-84
2023/10/17 14:18:00;;;;;;;14.60;5.15;;;;;;;;;;4955851;28;20051;-83
2023/10/17 14:20:38;;;;;;;3.47;3.05;;;;;;;;;;4966238;28;20126;-83
2023/10/17 14:23:11;;;;;;;5.13;2.53;;;;;;;;;;4965630;28;20050;-84
2023/10/17 14:28:25;;;;;;;5.53;3.42;;;;;;;;;;4975451;28;20050;-83
2023/10/17 14:30:51;;;;;;;8.57;3.08;;;;;;;;;;4987715;28;20053;-83
2023/10/17 14:33:19;;;;;;;4.15;2.72;;;;;;;;;;4967078;28;20054;-83
2023/10/17 14:35:48;;;;;;;6.18;4.00;;;;;;;;;;4968049;28;20058;-83
2023/10/17 14:38:18;;;;;;;4.60;4.05;;;;;;;;;;4974015;28;20065;-82
2023/10/17 14:40:47;;;;;;;3.97;2.90;;;;;;;;;;4987384;28;20061;-83
2023/10/17 14:43:17;;;;;;;4.28;3.15;;;;;;;;;;4983433;28;20066;-83
2023/10/17 14:45:48;;;;;;;3.53;2.63;;;;;;;;;;4964587;28;20054;-84
2023/10/17 14:48:18;;;;;;;3.60;3.30;;;;;;;;;;4973534;28;20050;-83
2023/10/17 14:50:50;;;;;;;3.50;2.80;;;;;;;;;;4968386;28;20050;-82
2023/10/17 14:53:21;;;;;;;3.45;2.83;;;;;;;;;;5001484;28;20038;-82
2023/10/17 14:55:57;;;;;;;4.38;2.53;;;;;;;;;;4971117;28;20420;-82
2023/10/17 14:58:29;;;;;;;5.43;3.17;;;;;;;;;;4955889;28;20053;-83
2023/10/17 15:00:58;;;;;;;5.40;3.15;;;;;;;;;;4985977;28;20054;-83
2023/10/17 15:03:29;;;;;;;4.25;3.15;;;;;;;;;;4970124;28;20046;-83
2023/10/17 15:05:57;;;;;;;3.10;2.65;;;;;;;;;;4969337;28;20050;-83
2023/10/17 15:08:25;;;;;;;6.28;2.40;;;;;;;;;;4954928;28;20047;-83
2023/10/17 15:10:54;;;;;;;2.88;2.40;;;;;;;;;;4954837;28;20061;-83
2023/10/17 15:13:22;;;;;;;3.28;2.97;;;;;;;;;;4976063;28;20047;-83
2023/10/17 15:15:51;;;;;;;4.88;3.65;;;;;;;;;;4974447;28;20504;-83
2023/10/17 15:18:20;;;;;;;5.22;3.08;;;;;;;;;;4972780;28;20061;-83
2023/10/17 15:20:47;;;;;;;4.28;2.97;;;;;;;;;;4978916;28;20050;-83
2023/10/17 15:23:18;;;;;;;7.38;3.10;;;;;;;;;;4970237;28;20053;-83
2023/10/17 15:25:45;;;;;;;4.30;3.35;;;;;;;;;;4978810;28;20046;-82
2023/10/17 15:28:12;;;;;;;4.93;3.17;;;;;;;;;;4974890;28;20050;-82
2023/10/17 15:30:40;;;;;;;5.03;2.55;;;;;;;;;;4969888;28;20076;-82
2023/10/17 15:33:07;;;;;;;4.53;2.72;;;;;;;;;;4990802;28;20050;-82
2023/10/17 15:35:36;;;;;;;4.10;2.75;;;;;;;;;;4975207;28;20054;-82
2023/10/17 15:38:05;;;;;;;3.22;2.60;;;;;;;;;;4956783;28;20038;-82
2023/10/17 15:40:32;;;;;;;3.95;2.95;;;;;;;;;;4977224;28;20417;-82
2023/10/17 15:43:02;;;;;;;3.78;2.40;;;;;;;;;;4972777;28;20059;-82
2023/10/17 15:45:31;;;;;;;7.28;3.05;;;;;;;;;;4963008;28;20074;-82
2023/10/17 15:47:59;;;;;;;4.47;2.95;;;;;;;;;;5000799;28;20062;-82
2023/10/17 15:50:26;;;;;;;2.67;2.45;;;;;;;;;;4978709;28;20043;-82
2023/10/17 15:53:01;;;;;;;3.63;2.35;;;;;;;;;;4980287;28;20046;-82
2023/10/17 15:55:28;;;;;;;2.70;2.50;;;;;;;;;;4962081;28;20055;-82
2023/10/17 15:58:00;;;;;;;4.95;2.97;;;;;;;;;;4956234;28;20058;-82
2023/10/17 16:00:30;;;;;;;4.43;2.60;;;;;;;;;;4961005;28;20400;-82
2023/10/17 16:02:58;;;;;;;3.40;2.00;;;;;;;;;;4974060;28;20501;-82
2023/10/17 16:05:27;;;;;;;3.33;2.75;;;;;;;;;;4960648;28;20053;-82
2023/10/17 16:07:54;;;;;;;2.95;2.42;;;;;;;;;;4972774;28;20122;-82
2023/10/17 16:10:23;;;;;;;4.72;3.03;;;;;;;;;;5005536;28;20038;-82
2023/10/17 16:12:53;;;;;;;2.97;2.67;;;;;;;;;;4982564;28;20053;-83
2023/10/17 16:15:25;;;;;;;3.28;2.65;;;;;;;;;;4986470;28;20051;-83
2023/10/17 16:17:52;;;;;;;5.55;3.45;;;;;;;;;;4958562;28;20131;-83
2023/10/17 16:20:22;;;;;;;2.85;2.25;;;;;;;;;;4998063;28;20043;-82
2023/10/17 16:22:51;;;;;;;3.15;2.50;;;;;;;;;;4986351;28;20065;-82
2023/10/17 16:25:20;;;;;;;4.97;2.53;;;;;;;;;;4982995;28;20320;-82
2023/10/17 16:27:49;;;;;;;5.00;2.35;;;;;;;;;;4973792;28;20050;-82
2023/10/17 16:30:16;;;;;;;2.85;2.13;;;;;;;;;;4974412;28;20046;-82
2023/10/17 16:32:46;;;;;;;2.97;2.42;;;;;;;;;;4953903;28;20062;-82
2023/10/17 16:35:16;;;;;;;4.53;2.97;;;;;;;;;;4984049;28;20070;-82
2023/10/17 16:37:46;;;;;;;4.30;2.37;;;;;;;;;;4957917;28;20039;-82
2023/10/17 16:40:14;;;;;;;2.75;1.98;;;;;;;;;;4990332;28;20129;-82
2023/10/17 16:42:44;;;;;;;4.88;3.40;;;;;;;;;;4984535;28;20038;-82
2023/10/17 16:45:13;;;;;;;3.60;2.30;;;;;;;;;;4976717;28;20034;-82